createdAt,value
2019-05-11T00:00:45.924Z,67.81
2019-05-11T00:01:50.855Z,67.84
2019-05-11T00:02:56.083Z,67.89
2019-05-11T00:04:01.440Z,67.97
2019-05-11T00:05:07.418Z,68.09
2019-05-11T00:06:12.726Z,68.17
2019-05-11T00:07:17.864Z,68.22
2019-05-11T00:08:23.148Z,68.29
2019-05-11T00:09:28.341Z,68.42
2019-05-11T00:10:33.639Z,68.53
2019-05-11T00:11:38.871Z,68.65
2019-05-11T00:12:43.825Z,68.81
2019-05-11T00:13:48.966Z,68.86
2019-05-11T00:14:55.649Z,68.92
2019-05-11T00:16:00.781Z,68.97
2019-05-11T00:17:05.826Z,68.99
2019-05-11T00:18:11.388Z,69.07
2019-05-11T00:19:16.378Z,69.06
2019-05-11T00:20:22.919Z,69.02
2019-05-11T00:21:28.305Z,68.99
2019-05-11T00:22:33.902Z,69.04
2019-05-11T00:23:39.195Z,69.04
2019-05-11T00:24:44.344Z,69.09
2019-05-11T00:25:49.382Z,69.09
2019-05-11T00:26:54.556Z,69.15
2019-05-11T00:28:00.175Z,69.21
2019-05-11T00:29:05.844Z,69.27
2019-05-11T00:30:11.873Z,69.30
2019-05-11T00:31:17.016Z,69.30
2019-05-11T00:32:22.987Z,69.34
2019-05-11T00:33:28.217Z,69.39
2019-05-11T00:34:33.497Z,69.43
2019-05-11T00:35:38.929Z,69.47
2019-05-11T00:36:43.912Z,69.44
2019-05-11T00:37:49.423Z,69.40
2019-05-11T00:38:55.090Z,69.42
2019-05-11T00:40:13.232Z,69.41
2019-05-11T00:41:06.992Z,69.38
2019-05-11T00:42:12.109Z,69.37
2019-05-11T00:43:17.024Z,69.35
2019-05-11T00:44:22.235Z,69.33
2019-05-11T00:45:27.543Z,69.39
2019-05-11T00:46:32.747Z,69.41
2019-05-11T00:47:39.076Z,69.41
2019-05-11T00:48:44.686Z,69.43
2019-05-11T00:49:49.711Z,69.40
2019-05-11T00:50:54.934Z,69.39
2019-05-11T00:52:00.371Z,69.43
2019-05-11T00:53:05.659Z,69.45
2019-05-11T00:54:11.269Z,69.45
2019-05-11T00:55:17.253Z,69.46
2019-05-11T00:56:22.192Z,69.41
2019-05-11T00:57:27.661Z,69.44
2019-05-11T00:58:32.711Z,69.48
2019-05-11T00:59:38.205Z,69.46
2019-05-11T01:00:47.317Z,69.46
2019-05-11T01:01:56.287Z,69.42
2019-05-11T01:03:01.497Z,69.40
2019-05-11T01:04:06.746Z,69.30
2019-05-11T01:05:12.544Z,69.29
2019-05-11T01:06:17.635Z,69.27
2019-05-11T01:07:22.618Z,69.25
2019-05-11T01:08:27.778Z,69.23
2019-05-11T01:09:32.724Z,69.20
2019-05-11T01:10:42.029Z,69.22
2019-05-11T01:11:44.847Z,69.18
2019-05-11T01:12:50.294Z,69.17
2019-05-11T01:13:55.608Z,69.16
2019-05-11T01:15:01.185Z,69.18
2019-05-11T01:16:06.601Z,69.16
2019-05-11T01:17:12.128Z,69.13
2019-05-11T01:18:17.398Z,69.07
2019-05-11T01:19:22.563Z,69.09
2019-05-11T01:20:27.602Z,69.09
2019-05-11T01:21:32.897Z,69.12
2019-05-11T01:22:37.823Z,69.15
2019-05-11T01:23:43.290Z,69.17
2019-05-11T01:24:48.316Z,69.28
2019-05-11T01:25:53.853Z,69.33
2019-05-11T01:26:58.830Z,69.36
2019-05-11T01:28:04.123Z,69.34
2019-05-11T01:29:09.160Z,69.30
2019-05-11T01:30:14.916Z,69.31
2019-05-11T01:31:20.282Z,69.28
2019-05-11T01:32:25.414Z,69.29
2019-05-11T01:33:30.413Z,69.26
2019-05-11T01:34:35.869Z,69.25
2019-05-11T01:35:41.145Z,69.27
2019-05-11T01:36:46.344Z,69.24
2019-05-11T01:37:51.272Z,69.18
2019-05-11T01:38:56.421Z,69.21
2019-05-11T01:40:01.404Z,69.27
2019-05-11T01:41:06.589Z,69.30
2019-05-11T01:42:11.557Z,69.31
2019-05-11T01:43:16.974Z,69.29
2019-05-11T01:44:21.966Z,69.25
2019-05-11T01:45:27.091Z,69.22
2019-05-11T01:46:32.027Z,69.18
2019-05-11T01:47:37.244Z,69.15
2019-05-11T01:48:42.159Z,69.15
2019-05-11T01:49:47.285Z,69.19
2019-05-11T01:50:52.640Z,69.19
2019-05-11T01:51:57.814Z,69.21
2019-05-11T01:53:02.740Z,69.21
2019-05-11T01:54:08.315Z,69.23
2019-05-11T01:55:13.412Z,69.25
2019-05-11T01:56:18.685Z,69.27
2019-05-11T01:57:23.640Z,69.34
2019-05-11T01:58:28.807Z,69.43
2019-05-11T01:59:33.753Z,69.51
2019-05-11T02:00:39.064Z,69.55
2019-05-11T02:01:44.124Z,69.56
2019-05-11T02:02:52.550Z,69.56
2019-05-11T02:03:57.732Z,69.55
2019-05-11T02:05:21.046Z,69.56
2019-05-11T02:06:26.043Z,69.55
2019-05-11T02:07:33.842Z,69.50
2019-05-11T02:08:37.952Z,69.46
2019-05-11T02:09:43.057Z,69.42
2019-05-11T02:10:48.444Z,69.38
2019-05-11T02:11:53.893Z,69.36
2019-05-11T02:12:59.086Z,69.30
2019-05-11T02:14:04.762Z,69.23
2019-05-11T02:15:09.799Z,69.15
2019-05-11T02:16:15.598Z,69.04
2019-05-11T02:17:20.869Z,68.95
2019-05-11T02:18:26.360Z,68.89
2019-05-11T02:19:31.461Z,68.81
2019-05-11T02:20:36.584Z,68.78
2019-05-11T02:21:41.523Z,68.83
2019-05-11T02:22:46.787Z,69.01
2019-05-11T02:23:52.043Z,69.14
2019-05-11T02:24:57.201Z,69.28
2019-05-11T02:26:02.188Z,69.42
2019-05-11T02:27:07.311Z,69.47
2019-05-11T02:28:12.550Z,69.53
2019-05-11T02:29:18.438Z,69.60
2019-05-11T02:30:23.545Z,69.68
2019-05-11T02:31:28.990Z,69.74
2019-05-11T02:32:33.913Z,69.72
2019-05-11T02:33:39.482Z,69.69
2019-05-11T02:34:45.050Z,69.73
2019-05-11T02:35:50.209Z,69.77
2019-05-11T02:36:55.173Z,69.86
2019-05-11T02:38:00.448Z,69.91
2019-05-11T02:39:07.526Z,69.96
2019-05-11T02:40:13.851Z,69.88
2019-05-11T02:41:34.468Z,69.86
2019-05-11T02:42:25.945Z,69.77
2019-05-11T02:43:30.988Z,69.77
2019-05-11T02:44:36.212Z,69.80
2019-05-11T02:45:42.804Z,69.86
2019-05-11T02:46:48.004Z,69.93
2019-05-11T02:47:53.645Z,70.01
2019-05-11T02:48:58.873Z,70.14
2019-05-11T02:50:04.185Z,70.24
2019-05-11T02:51:10.276Z,70.34
2019-05-11T02:52:16.093Z,70.39
2019-05-11T02:53:22.242Z,70.38
2019-05-11T02:54:29.711Z,70.36
2019-05-11T02:55:35.617Z,70.33
2019-05-11T02:56:40.537Z,70.27
2019-05-11T02:57:45.748Z,70.24
2019-05-11T02:58:50.960Z,70.22
2019-05-11T02:59:56.084Z,70.28
2019-05-11T03:01:01.341Z,70.32
2019-05-11T03:02:06.610Z,70.40
2019-05-11T03:03:11.877Z,70.56
2019-05-11T03:04:17.185Z,70.64
2019-05-11T03:05:22.096Z,70.82
2019-05-11T03:06:27.256Z,70.93
2019-05-11T03:07:32.537Z,70.94
2019-05-11T03:08:41.195Z,70.95
2019-05-11T03:09:46.489Z,70.91
2019-05-11T03:10:51.958Z,70.90
2019-05-11T03:11:57.007Z,70.88
2019-05-11T03:13:02.587Z,70.84
2019-05-11T03:14:08.088Z,70.82
2019-05-11T03:15:13.470Z,70.90
2019-05-11T03:16:18.624Z,71.01
2019-05-11T03:17:28.756Z,71.05
2019-05-11T03:18:33.787Z,71.16
2019-05-11T03:19:39.302Z,71.29
2019-05-11T03:20:44.281Z,71.47
2019-05-11T03:21:49.442Z,71.58
2019-05-11T03:22:54.456Z,71.68
2019-05-11T03:23:59.596Z,71.80
2019-05-11T03:25:04.857Z,71.94
2019-05-11T03:26:10.376Z,72.01
2019-05-11T03:27:15.407Z,72.12
2019-05-11T03:28:20.607Z,72.21
2019-05-11T03:29:25.819Z,72.31
2019-05-11T03:30:31.139Z,72.40
2019-05-11T03:31:36.364Z,72.42
2019-05-11T03:32:41.869Z,72.45
2019-05-11T03:33:47.157Z,72.42
2019-05-11T03:34:52.541Z,72.47
2019-05-11T03:35:57.494Z,72.42
2019-05-11T03:37:02.746Z,72.46
2019-05-11T03:38:07.737Z,72.49
2019-05-11T03:39:12.867Z,72.47
2019-05-11T03:40:18.788Z,72.46
2019-05-11T03:41:25.451Z,72.42
2019-05-11T03:42:30.376Z,72.41
2019-05-11T03:43:35.603Z,72.44
2019-05-11T03:44:40.560Z,72.48
2019-05-11T03:45:45.951Z,72.56
2019-05-11T03:46:51.211Z,72.63
2019-05-11T03:47:56.308Z,72.73
2019-05-11T03:49:01.245Z,72.78
2019-05-11T03:50:06.698Z,72.84
2019-05-11T03:51:11.663Z,72.92
2019-05-11T03:52:16.919Z,72.98
2019-05-11T03:53:21.946Z,73.03
2019-05-11T03:54:27.055Z,73.11
2019-05-11T03:55:34.627Z,73.20
2019-05-11T03:56:39.834Z,73.23
2019-05-11T03:57:44.871Z,73.34
2019-05-11T03:58:50.016Z,73.42
2019-05-11T03:59:55.136Z,73.53
2019-05-11T04:01:00.542Z,73.62
2019-05-11T04:02:05.653Z,73.70
2019-05-11T04:03:10.981Z,73.78
2019-05-11T04:04:16.769Z,73.83
2019-05-11T04:05:22.158Z,73.88
2019-05-11T04:06:27.258Z,73.89
2019-05-11T04:07:32.420Z,73.89
2019-05-11T04:08:37.378Z,73.90
2019-05-11T04:09:42.934Z,73.95
2019-05-11T04:10:48.504Z,73.95
2019-05-11T04:11:53.714Z,73.93
2019-05-11T04:12:58.648Z,73.92
2019-05-11T04:14:03.904Z,73.94
2019-05-11T04:15:10.324Z,74.02
2019-05-11T04:16:15.867Z,74.05
2019-05-11T04:17:22.678Z,74.06
2019-05-11T04:18:27.845Z,74.06
2019-05-11T04:19:32.963Z,74.06
2019-05-11T04:20:38.202Z,74.05
2019-05-11T04:21:43.152Z,74.03
2019-05-11T04:22:48.588Z,74.00
2019-05-11T04:23:53.671Z,73.99
2019-05-11T04:24:59.134Z,73.98
2019-05-11T04:26:04.177Z,73.91
2019-05-11T04:27:09.398Z,73.87
2019-05-11T04:28:14.650Z,73.88
2019-05-11T04:29:19.755Z,73.87
2019-05-11T04:30:24.724Z,73.90
2019-05-11T04:31:29.831Z,73.92
2019-05-11T04:32:34.787Z,74.04
2019-05-11T04:33:39.939Z,74.12
2019-05-11T04:34:45.343Z,74.13
2019-05-11T04:35:50.801Z,74.09
2019-05-11T04:36:55.756Z,74.13
2019-05-11T04:38:01.652Z,74.12
2019-05-11T04:39:07.239Z,74.12
2019-05-11T04:40:13.127Z,74.16
2019-05-11T04:41:18.123Z,74.19
2019-05-11T04:42:23.584Z,74.22
2019-05-11T04:43:28.626Z,74.18
2019-05-11T04:44:33.882Z,74.18
2019-05-11T04:45:39.008Z,74.20
2019-05-11T04:46:44.253Z,74.30
2019-05-11T04:47:49.575Z,74.32
2019-05-11T04:48:55.138Z,74.42
2019-05-11T04:50:00.365Z,74.38
2019-05-11T04:51:05.542Z,74.38
2019-05-11T04:52:10.543Z,74.35
2019-05-11T04:53:16.719Z,74.22
2019-05-11T04:54:22.094Z,74.20
2019-05-11T04:55:27.267Z,74.15
2019-05-11T04:56:33.143Z,74.09
2019-05-11T04:57:38.292Z,74.07
2019-05-11T04:58:43.304Z,74.03
2019-05-11T04:59:48.579Z,74.01
2019-05-11T05:00:53.528Z,73.97
2019-05-11T05:01:59.230Z,73.92
2019-05-11T05:03:04.269Z,73.88
2019-05-11T05:04:14.455Z,73.85
2019-05-11T05:05:16.317Z,73.79
2019-05-11T05:06:23.956Z,73.72
2019-05-11T05:07:28.191Z,73.67
2019-05-11T05:08:33.692Z,73.63
2019-05-11T05:09:42.919Z,73.57
2019-05-11T05:10:45.744Z,73.51
2019-05-11T05:11:50.673Z,73.46
2019-05-11T05:13:09.720Z,73.41
2019-05-11T05:14:08.408Z,73.36
2019-05-11T05:15:09.982Z,73.41
2019-05-11T05:16:15.319Z,73.43
2019-05-11T05:17:20.432Z,73.39
2019-05-11T05:18:25.410Z,73.40
2019-05-11T05:19:30.972Z,73.41
2019-05-11T05:20:35.926Z,73.32
2019-05-11T05:21:41.229Z,73.38
2019-05-11T05:22:46.749Z,73.38
2019-05-11T05:23:51.948Z,73.37
2019-05-11T05:24:57.586Z,73.36
2019-05-11T05:26:02.985Z,73.29
2019-05-11T05:27:08.085Z,73.26
2019-05-11T05:28:13.542Z,73.28
2019-05-11T05:29:19.122Z,73.33
2019-05-11T05:30:24.316Z,73.32
2019-05-11T05:31:29.333Z,73.37
2019-05-11T05:32:34.633Z,73.36
2019-05-11T05:33:39.737Z,73.35
2019-05-11T05:34:44.978Z,73.37
2019-05-11T05:35:50.460Z,73.34
2019-05-11T05:36:55.687Z,73.29
2019-05-11T05:38:01.051Z,73.31
2019-05-11T05:39:09.063Z,73.27
2019-05-11T05:40:15.149Z,73.27
2019-05-11T05:41:20.583Z,73.28
2019-05-11T05:42:25.847Z,73.33
2019-05-11T05:43:31.117Z,73.34
2019-05-11T05:44:36.437Z,73.31
2019-05-11T05:45:41.570Z,73.32
2019-05-11T05:46:46.609Z,73.31
2019-05-11T05:47:52.213Z,73.28
2019-05-11T05:48:57.495Z,73.27
2019-05-11T05:50:03.112Z,73.22
2019-05-11T05:51:08.284Z,73.20
2019-05-11T05:52:13.609Z,73.17
2019-05-11T05:53:18.556Z,73.18
2019-05-11T05:54:24.076Z,73.20
2019-05-11T05:55:29.014Z,73.22
2019-05-11T05:56:34.133Z,73.18
2019-05-11T05:57:39.095Z,73.16
2019-05-11T05:58:44.520Z,73.21
2019-05-11T05:59:49.441Z,73.19
2019-05-11T06:00:54.694Z,73.22
2019-05-11T06:01:59.757Z,73.24
2019-05-11T06:03:05.149Z,73.32
2019-05-11T06:04:10.147Z,73.42
2019-05-11T06:05:15.688Z,73.45
2019-05-11T06:06:20.806Z,73.50
2019-05-11T06:07:25.946Z,73.50
2019-05-11T06:08:30.900Z,73.39
2019-05-11T06:09:37.220Z,73.47
2019-05-11T06:10:42.227Z,73.51
2019-05-11T06:11:47.432Z,73.48
2019-05-11T06:12:52.395Z,73.46
2019-05-11T06:13:57.874Z,73.49
2019-05-11T06:15:02.998Z,73.44
2019-05-11T06:16:08.146Z,73.40
2019-05-11T06:17:13.068Z,73.32
2019-05-11T06:18:18.552Z,73.40
2019-05-11T06:19:23.856Z,73.51
2019-05-11T06:20:29.062Z,73.59
2019-05-11T06:21:34.959Z,73.58
2019-05-11T06:22:40.465Z,73.57
2019-05-11T06:23:45.471Z,73.54
2019-05-11T06:24:50.637Z,73.54
2019-05-11T06:25:55.580Z,73.53
2019-05-11T06:27:01.334Z,73.40
2019-05-11T06:28:06.693Z,73.41
2019-05-11T06:29:11.858Z,73.38
2019-05-11T06:30:17.248Z,73.29
2019-05-11T06:31:22.405Z,73.31
2019-05-11T06:32:28.240Z,73.25
2019-05-11T06:33:33.553Z,73.29
2019-05-11T06:34:38.490Z,73.42
2019-05-11T06:35:43.905Z,73.40
2019-05-11T06:36:48.981Z,73.34
2019-05-11T06:37:54.426Z,73.37
2019-05-11T06:38:59.537Z,73.38
2019-05-11T06:40:05.099Z,73.32
2019-05-11T06:41:10.120Z,73.34
2019-05-11T06:42:15.388Z,73.30
2019-05-11T06:43:20.410Z,73.19
2019-05-11T06:44:25.528Z,73.07
2019-05-11T06:45:30.458Z,73.01
2019-05-11T06:46:36.033Z,73.13
2019-05-11T06:47:41.039Z,73.18
2019-05-11T06:48:46.414Z,73.17
2019-05-11T06:49:51.347Z,73.17
2019-05-11T06:50:56.799Z,73.17
2019-05-11T06:52:02.118Z,73.14
2019-05-11T06:53:07.264Z,73.02
2019-05-11T06:54:12.308Z,72.97
2019-05-11T06:55:17.522Z,73.06
2019-05-11T06:56:22.861Z,73.11
2019-05-11T06:57:27.968Z,73.14
2019-05-11T06:58:32.916Z,73.27
2019-05-11T06:59:38.435Z,73.28
2019-05-11T07:00:43.475Z,73.40
2019-05-11T07:01:48.731Z,73.42
2019-05-11T07:02:54.115Z,73.38
2019-05-11T07:03:59.975Z,73.33
2019-05-11T07:05:05.530Z,73.35
2019-05-11T07:06:10.814Z,73.39
2019-05-11T07:07:16.251Z,73.31
2019-05-11T07:08:21.521Z,73.40
2019-05-11T07:09:26.559Z,73.38
2019-05-11T07:10:31.814Z,73.34
2019-05-11T07:11:36.734Z,73.39
2019-05-11T07:12:42.066Z,73.43
2019-05-11T07:13:47.029Z,73.37
2019-05-11T07:14:52.224Z,73.36
2019-05-11T07:15:57.140Z,73.34
2019-05-11T07:17:02.594Z,73.19
2019-05-11T07:18:07.615Z,73.26
2019-05-11T07:19:13.147Z,73.27
2019-05-11T07:20:18.247Z,73.31
2019-05-11T07:21:23.498Z,73.38
2019-05-11T07:22:28.974Z,73.40
2019-05-11T07:23:34.365Z,73.47
2019-05-11T07:24:39.670Z,73.40
2019-05-11T07:25:44.907Z,73.35
2019-05-11T07:26:50.120Z,73.38
2019-05-11T07:27:55.668Z,73.45
2019-05-11T07:29:00.673Z,73.33
2019-05-11T07:30:06.691Z,73.42
2019-05-11T07:31:12.312Z,73.50
2019-05-11T07:32:24.978Z,73.50
2019-05-11T07:33:24.396Z,73.52
2019-05-11T07:34:29.552Z,73.53
2019-05-11T07:35:34.695Z,73.50
2019-05-11T07:36:39.797Z,73.42
2019-05-11T07:37:44.828Z,73.32
2019-05-11T07:38:49.944Z,73.29
2019-05-11T07:39:54.959Z,73.25
2019-05-11T07:41:00.757Z,73.26
2019-05-11T07:42:07.772Z,73.32
2019-05-11T07:43:12.746Z,73.32
2019-05-11T07:44:19.116Z,73.42
2019-05-11T07:45:24.573Z,73.42
2019-05-11T07:46:29.580Z,73.34
2019-05-11T07:47:35.115Z,73.24
2019-05-11T07:48:40.146Z,73.21
2019-05-11T07:49:45.394Z,73.23
2019-05-11T07:50:50.353Z,73.25
2019-05-11T07:51:58.541Z,73.35
2019-05-11T07:53:02.881Z,73.28
2019-05-11T07:54:08.559Z,73.25
2019-05-11T07:55:14.259Z,73.28
2019-05-11T07:56:19.787Z,73.26
2019-05-11T07:57:25.326Z,73.19
2019-05-11T07:58:30.808Z,73.19
2019-05-11T07:59:37.985Z,73.23
2019-05-11T08:00:42.791Z,73.23
2019-05-11T08:01:48.136Z,73.21
2019-05-11T08:02:53.309Z,73.21
2019-05-11T08:03:59.042Z,73.19
2019-05-11T08:05:04.867Z,73.23
2019-05-11T08:06:10.257Z,73.23
2019-05-11T08:07:15.403Z,73.08
2019-05-11T08:08:20.500Z,73.04
2019-05-11T08:09:27.801Z,73.09
2019-05-11T08:10:32.758Z,73.14
2019-05-11T08:11:38.872Z,72.90
2019-05-11T08:12:44.395Z,72.80
2019-05-11T08:13:49.958Z,72.78
2019-05-11T08:15:03.119Z,72.82
2019-05-11T08:16:02.719Z,72.86
2019-05-11T08:17:08.658Z,72.75
2019-05-11T08:18:13.984Z,72.54
2019-05-11T08:19:18.981Z,72.46
2019-05-11T08:20:24.152Z,72.39
2019-05-11T08:21:29.234Z,72.27
2019-05-11T08:22:34.382Z,72.28
2019-05-11T08:23:39.356Z,72.11
2019-05-11T08:24:45.226Z,72.07
2019-05-11T08:25:50.399Z,72.03
2019-05-11T08:26:58.033Z,71.81
2019-05-11T08:28:02.206Z,71.87
2019-05-11T08:29:08.085Z,71.84
2019-05-11T08:30:14.055Z,71.71
2019-05-11T08:31:19.675Z,71.80
2019-05-11T08:32:24.935Z,71.58
2019-05-11T08:33:30.278Z,71.58
2019-05-11T08:34:35.194Z,71.52
2019-05-11T08:35:40.648Z,71.47
2019-05-11T08:36:47.835Z,71.35
2019-05-11T08:37:52.782Z,71.26
2019-05-11T08:38:58.510Z,71.35
2019-05-11T08:40:04.216Z,71.32
2019-05-11T08:41:09.306Z,71.30
2019-05-11T08:42:14.484Z,71.24
2019-05-11T08:43:19.658Z,71.14
2019-05-11T08:44:24.879Z,70.96
2019-05-11T08:45:30.090Z,70.75
2019-05-11T08:46:35.464Z,70.73
2019-05-11T08:47:40.463Z,70.65
2019-05-11T08:48:47.738Z,70.62
2019-05-11T08:49:52.438Z,70.73
2019-05-11T08:50:58.415Z,70.68
2019-05-11T08:52:03.497Z,70.69
2019-05-11T08:53:09.267Z,70.69
2019-05-11T08:54:15.165Z,70.49
2019-05-11T08:55:20.561Z,70.51
2019-05-11T08:56:25.780Z,70.48
2019-05-11T08:57:31.138Z,70.46
2019-05-11T08:58:38.010Z,70.40
2019-05-11T08:59:43.354Z,70.21
2019-05-11T09:00:49.198Z,70.03
2019-05-11T09:01:54.347Z,69.81
2019-05-11T09:02:59.878Z,69.60
2019-05-11T09:04:05.055Z,69.61
2019-05-11T09:05:10.512Z,69.48
2019-05-11T09:06:17.965Z,69.45
2019-05-11T09:07:23.020Z,69.27
2019-05-11T09:08:28.536Z,69.30
2019-05-11T09:09:33.588Z,69.15
2019-05-11T09:10:39.766Z,69.20
2019-05-11T09:11:48.160Z,69.18
2019-05-11T09:12:53.378Z,69.22
2019-05-11T09:13:58.720Z,69.16
2019-05-11T09:15:04.013Z,69.08
2019-05-11T09:16:09.019Z,68.90
2019-05-11T09:17:14.170Z,68.93
2019-05-11T09:18:19.647Z,68.90
2019-05-11T09:19:25.501Z,68.90
2019-05-11T09:20:30.905Z,68.90
2019-05-11T09:21:38.322Z,68.85
2019-05-11T09:22:43.146Z,68.81
2019-05-11T09:23:48.752Z,68.85
2019-05-11T09:24:53.885Z,68.85
2019-05-11T09:25:59.338Z,68.79
2019-05-11T09:27:04.317Z,68.71
2019-05-11T09:28:09.485Z,68.43
2019-05-11T09:29:14.958Z,68.27
2019-05-11T09:30:20.838Z,68.03
2019-05-11T09:31:27.917Z,67.77
2019-05-11T09:32:32.949Z,67.63
2019-05-11T09:33:38.546Z,67.45
2019-05-11T09:34:44.335Z,67.29
2019-05-11T09:35:53.075Z,67.02
2019-05-11T09:36:58.449Z,66.73
2019-05-11T09:38:02.951Z,66.44
2019-05-11T09:39:08.929Z,66.16
2019-05-11T09:40:14.295Z,65.96
2019-05-11T09:41:19.498Z,65.55
2019-05-11T09:42:25.090Z,65.39
2019-05-11T09:43:30.259Z,65.23
2019-05-11T09:44:37.834Z,64.92
2019-05-11T09:45:48.189Z,64.63
2019-05-11T09:46:49.400Z,64.53
2019-05-11T09:47:58.132Z,64.18
2019-05-11T09:49:03.696Z,64.00
2019-05-11T09:50:10.414Z,63.77
2019-05-11T09:51:19.469Z,63.61
2019-05-11T09:52:27.591Z,63.32
2019-05-11T09:53:38.869Z,63.44
2019-05-11T09:54:44.071Z,63.41
2019-05-11T09:55:49.022Z,63.33
2019-05-11T09:56:54.230Z,63.17
2019-05-11T09:57:59.220Z,62.76
2019-05-11T09:59:04.460Z,62.57
2019-05-11T10:00:09.754Z,62.45
2019-05-11T10:01:14.993Z,62.19
2019-05-11T10:02:21.067Z,61.80
2019-05-11T10:03:28.174Z,61.70
2019-05-11T10:04:33.286Z,61.51
2019-05-11T10:05:38.728Z,61.40
2019-05-11T10:06:43.682Z,61.27
2019-05-11T10:07:49.203Z,61.26
2019-05-11T10:08:54.185Z,61.19
2019-05-11T10:09:59.335Z,61.05
2019-05-11T10:11:04.633Z,60.92
2019-05-11T10:12:09.755Z,60.64
2019-05-11T10:13:14.710Z,60.60
2019-05-11T10:14:20.228Z,60.52
2019-05-11T10:15:27.778Z,60.42
2019-05-11T10:16:32.453Z,60.12
2019-05-11T10:17:38.382Z,59.95
2019-05-11T10:18:43.732Z,59.92
2019-05-11T10:19:49.724Z,59.98
2019-05-11T10:20:55.037Z,59.94
2019-05-11T10:21:59.980Z,59.73
2019-05-11T10:23:05.410Z,59.61
2019-05-11T10:24:10.392Z,59.41
2019-05-11T10:25:17.977Z,59.36
2019-05-11T10:26:22.326Z,59.20
2019-05-11T10:27:28.143Z,59.01
2019-05-11T10:28:33.203Z,58.90
2019-05-11T10:29:38.463Z,58.92
2019-05-11T10:30:43.677Z,58.67
2019-05-11T10:31:49.159Z,58.57
2019-05-11T10:32:54.407Z,58.46
2019-05-11T10:34:00.228Z,58.38
2019-05-11T10:35:07.793Z,58.56
2019-05-11T10:36:12.482Z,58.73
2019-05-11T10:37:17.746Z,59.05
2019-05-11T10:38:23.041Z,59.30
2019-05-11T10:39:28.452Z,59.45
2019-05-11T10:40:33.774Z,59.68
2019-05-11T10:41:39.125Z,59.91
2019-05-11T10:42:44.352Z,59.84
2019-05-11T10:43:49.429Z,59.95
2019-05-11T10:44:54.604Z,60.11
2019-05-11T10:45:59.934Z,60.03
2019-05-11T10:47:08.076Z,59.85
2019-05-11T10:48:12.415Z,59.64
2019-05-11T10:49:18.476Z,59.55
2019-05-11T10:50:23.830Z,59.33
2019-05-11T10:51:29.058Z,59.03
2019-05-11T10:52:34.233Z,58.87
2019-05-11T10:53:39.805Z,58.58
2019-05-11T10:54:44.787Z,58.57
2019-05-11T10:55:49.899Z,58.54
2019-05-11T10:56:54.931Z,58.26
2019-05-11T10:58:00.155Z,58.27
2019-05-11T10:59:05.169Z,58.21
2019-05-11T11:00:11.653Z,58.27
2019-05-11T11:01:18.189Z,58.33
2019-05-11T11:02:23.606Z,58.29
2019-05-11T11:03:28.915Z,58.41
2019-05-11T11:04:34.131Z,58.42
2019-05-11T11:05:39.101Z,58.56
2019-05-11T11:06:44.246Z,58.68
2019-05-11T11:07:49.219Z,58.65
2019-05-11T11:08:54.656Z,58.29
2019-05-11T11:09:59.605Z,58.24
2019-05-11T11:11:04.929Z,58.10
2019-05-11T11:12:09.957Z,57.86
2019-05-11T11:13:15.451Z,57.55
2019-05-11T11:14:20.457Z,57.46
2019-05-11T11:15:26.033Z,57.41
2019-05-11T11:16:39.269Z,57.38
2019-05-11T11:17:38.479Z,57.19
2019-05-11T11:18:43.551Z,57.19
2019-05-11T11:19:48.881Z,56.77
2019-05-11T11:20:54.728Z,56.77
2019-05-11T11:22:28.557Z,56.81
2019-05-11T11:23:08.826Z,56.68
2019-05-11T11:24:13.885Z,56.50
2019-05-11T11:25:18.973Z,56.04
2019-05-11T11:26:24.164Z,55.73
2019-05-11T11:27:29.315Z,55.67
2019-05-11T11:28:35.198Z,55.59
2019-05-11T11:29:40.138Z,55.46
2019-05-11T11:30:47.911Z,55.25
2019-05-11T11:31:52.287Z,55.10
2019-05-11T11:32:58.729Z,55.01
2019-05-11T11:34:04.213Z,54.89
2019-05-11T11:35:09.911Z,54.93
2019-05-11T11:36:14.962Z,55.01
2019-05-11T11:37:20.472Z,54.99
2019-05-11T11:38:28.076Z,54.79
2019-05-11T11:39:32.850Z,54.76
2019-05-11T11:40:38.711Z,54.75
2019-05-11T11:41:44.182Z,54.61
2019-05-11T11:42:49.458Z,54.65
2019-05-11T11:43:55.430Z,54.59
2019-05-11T11:45:00.358Z,54.57
2019-05-11T11:46:08.231Z,54.37
2019-05-11T11:47:12.985Z,54.13
2019-05-11T11:48:18.904Z,54.17
2019-05-11T11:49:24.391Z,54.05
2019-05-11T11:50:29.811Z,54.11
2019-05-11T11:51:35.202Z,54.11
2019-05-11T11:52:40.590Z,54.06
2019-05-11T11:53:47.729Z,54.05
2019-05-11T11:54:53.234Z,53.90
2019-05-11T11:55:58.754Z,53.51
2019-05-11T11:57:04.487Z,53.24
2019-05-11T11:58:09.593Z,53.15
2019-05-11T11:59:14.700Z,52.84
2019-05-11T12:00:20.024Z,52.71
2019-05-11T12:01:27.925Z,52.71
2019-05-11T12:02:32.583Z,52.53
2019-05-11T12:03:38.133Z,52.52
2019-05-11T12:04:43.720Z,52.62
2019-05-11T12:05:49.303Z,52.69
2019-05-11T12:06:54.426Z,52.80
2019-05-11T12:07:59.661Z,52.94
2019-05-11T12:09:08.790Z,53.10
2019-05-11T12:10:14.491Z,53.22
2019-05-11T12:11:19.500Z,53.02
2019-05-11T12:12:24.611Z,53.20
2019-05-11T12:13:29.835Z,53.31
2019-05-11T12:14:35.149Z,53.18
2019-05-11T12:15:40.158Z,53.17
2019-05-11T12:16:45.308Z,53.10
2019-05-11T12:17:50.264Z,53.12
2019-05-11T12:18:57.705Z,53.13
2019-05-11T12:20:02.852Z,53.10
2019-05-11T12:21:08.358Z,53.07
2019-05-11T12:22:13.357Z,53.06
2019-05-11T12:23:18.495Z,53.00
2019-05-11T12:24:23.563Z,52.95
2019-05-11T12:25:29.019Z,52.95
2019-05-11T12:26:33.993Z,52.93
2019-05-11T12:27:39.271Z,52.88
2019-05-11T12:28:44.239Z,52.88
2019-05-11T12:29:49.411Z,52.82
2019-05-11T12:30:54.409Z,52.54
2019-05-11T12:32:01.166Z,52.47
2019-05-11T12:33:08.117Z,52.41
2019-05-11T12:34:13.381Z,52.29
2019-05-11T12:35:18.548Z,52.12
2019-05-11T12:36:23.740Z,51.99
2019-05-11T12:37:29.415Z,51.71
2019-05-11T12:38:34.667Z,51.47
2019-05-11T12:39:39.703Z,51.21
2019-05-11T12:40:45.191Z,51.15
2019-05-11T12:41:50.241Z,51.06
2019-05-11T12:42:55.530Z,51.14
2019-05-11T12:44:00.538Z,51.13
2019-05-11T12:45:07.527Z,51.13
2019-05-11T12:46:13.698Z,51.21
2019-05-11T12:47:24.699Z,51.41
2019-05-11T12:48:25.601Z,51.62
2019-05-11T12:49:31.017Z,51.75
2019-05-11T12:50:37.907Z,51.81
2019-05-11T12:51:43.096Z,51.88
2019-05-11T12:52:48.741Z,51.81
2019-05-11T12:53:54.062Z,51.70
2019-05-11T12:54:59.302Z,51.63
2019-05-11T12:56:04.856Z,51.56
2019-05-11T12:57:09.830Z,51.64
2019-05-11T12:58:15.065Z,51.78
2019-05-11T12:59:20.236Z,51.92
2019-05-11T13:00:30.391Z,51.96
2019-05-11T13:01:33.076Z,51.99
2019-05-11T13:02:38.931Z,52.07
2019-05-11T13:03:44.614Z,52.07
2019-05-11T13:04:49.763Z,52.06
2019-05-11T13:05:54.726Z,51.84
2019-05-11T13:07:00.460Z,51.66
2019-05-11T13:08:08.073Z,51.47
2019-05-11T13:09:12.822Z,51.26
2019-05-11T13:10:18.919Z,50.99
2019-05-11T13:11:24.032Z,50.77
2019-05-11T13:12:29.023Z,50.59
2019-05-11T13:13:34.236Z,50.31
2019-05-11T13:14:39.204Z,50.36
2019-05-11T13:15:44.341Z,50.39
2019-05-11T13:16:49.586Z,50.33
2019-05-11T13:17:54.747Z,50.25
2019-05-11T13:19:00.837Z,50.32
2019-05-11T13:20:08.629Z,50.35
2019-05-11T13:21:13.915Z,50.18
2019-05-11T13:22:19.335Z,50.02
2019-05-11T13:23:24.433Z,49.88
2019-05-11T13:24:29.939Z,49.61
2019-05-11T13:25:34.956Z,49.70
2019-05-11T13:26:40.080Z,49.80
2019-05-11T13:27:45.052Z,49.91
2019-05-11T13:28:50.162Z,50.03
2019-05-11T13:29:55.168Z,50.25
2019-05-11T13:31:00.337Z,50.49
2019-05-11T13:32:07.705Z,50.67
2019-05-11T13:33:12.273Z,50.79
2019-05-11T13:34:18.032Z,50.86
2019-05-11T13:35:23.240Z,50.97
2019-05-11T13:36:28.728Z,51.07
2019-05-11T13:37:34.527Z,51.20
2019-05-11T13:38:39.832Z,51.24
2019-05-11T13:39:45.433Z,51.28
2019-05-11T13:40:50.398Z,51.17
2019-05-11T13:41:57.821Z,51.23
2019-05-11T13:43:02.374Z,51.29
2019-05-11T13:44:08.084Z,51.37
2019-05-11T13:45:13.452Z,51.30
2019-05-11T13:46:18.639Z,51.21
2019-05-11T13:47:23.686Z,51.21
2019-05-11T13:48:28.808Z,51.10
2019-05-11T13:49:33.885Z,51.16
2019-05-11T13:50:38.941Z,51.12
2019-05-11T13:51:44.280Z,51.09
2019-05-11T13:52:49.523Z,51.04
2019-05-11T13:53:54.477Z,51.00
2019-05-11T13:54:59.670Z,51.01
2019-05-11T13:56:04.799Z,51.01
2019-05-11T13:57:09.935Z,50.82
2019-05-11T13:58:15.188Z,50.61
2019-05-11T13:59:20.323Z,50.57
2019-05-11T14:00:25.662Z,50.57
2019-05-11T14:01:31.152Z,50.44
2019-05-11T14:02:37.971Z,50.36
2019-05-11T14:03:43.484Z,50.17